sensor_id;sensor_type;location;lat;lon;timestamp;P1;durP1;ratioP1;P2;durP2;ratioP2
8482;SDS011;4278;42.668;23.312;2022-10-18T00:01:42;17.33;;;10.07;;
8482;SDS011;4278;42.668;23.312;2022-10-18T00:04:08;21.07;;;10.30;;
8482;SDS011;4278;42.668;23.312;2022-10-18T00:06:35;18.77;;;9.37;;
8482;SDS011;4278;42.668;23.312;2022-10-18T00:09:02;18.50;;;9.67;;
8482;SDS011;4278;42.668;23.312;2022-10-18T00:11:29;18.13;;;10.10;;
8482;SDS011;4278;42.668;23.312;2022-10-18T00:13:55;17.67;;;10.00;;
8482;SDS011;4278;42.668;23.312;2022-10-18T00:16:23;15.20;;;8.70;;
8482;SDS011;4278;42.668;23.312;2022-10-18T00:18:50;18.00;;;8.80;;
8482;SDS011;4278;42.668;23.312;2022-10-18T00:21:17;14.87;;;8.57;;
8482;SDS011;4278;42.668;23.312;2022-10-18T00:23:44;19.13;;;9.43;;
8482;SDS011;4278;42.668;23.312;2022-10-18T00:26:11;15.47;;;8.80;;
8482;SDS011;4278;42.668;23.312;2022-10-18T00:28:38;17.00;;;8.63;;
8482;SDS011;4278;42.668;23.312;2022-10-18T00:31:12;16.00;;;9.00;;
8482;SDS011;4278;42.668;23.312;2022-10-18T00:33:40;16.07;;;8.50;;
8482;SDS011;4278;42.668;23.312;2022-10-18T00:36:07;17.37;;;8.77;;
8482;SDS011;4278;42.668;23.312;2022-10-18T00:38:33;13.63;;;8.20;;
8482;SDS011;4278;42.668;23.312;2022-10-18T00:41:00;14.97;;;8.53;;
8482;SDS011;4278;42.668;23.312;2022-10-18T00:43:27;14.70;;;7.93;;
8482;SDS011;4278;42.668;23.312;2022-10-18T00:45:53;16.00;;;8.07;;
8482;SDS011;4278;42.668;23.312;2022-10-18T00:48:20;14.40;;;7.57;;
8482;SDS011;4278;42.668;23.312;2022-10-18T00:50:48;14.93;;;8.50;;
8482;SDS011;4278;42.668;23.312;2022-10-18T00:53:17;16.80;;;8.37;;
8482;SDS011;4278;42.668;23.312;2022-10-18T00:55:44;14.87;;;7.70;;
8482;SDS011;4278;42.668;23.312;2022-10-18T00:58:10;13.37;;;7.50;;
8482;SDS011;4278;42.668;23.312;2022-10-18T01:00:38;11.80;;;7.80;;
8482;SDS011;4278;42.668;23.312;2022-10-18T01:03:06;14.33;;;7.57;;
8482;SDS011;4278;42.668;23.312;2022-10-18T01:05:33;10.50;;;6.97;;
8482;SDS011;4278;42.668;23.312;2022-10-18T01:08:09;13.43;;;7.47;;
8482;SDS011;4278;42.668;23.312;2022-10-18T01:10:42;13.10;;;7.97;;
8482;SDS011;4278;42.668;23.312;2022-10-18T01:13:16;14.07;;;8.17;;
8482;SDS011;4278;42.668;23.312;2022-10-18T01:15:47;14.83;;;7.50;;
8482;SDS011;4278;42.668;23.312;2022-10-18T01:18:17;12.63;;;7.03;;
8482;SDS011;4278;42.668;23.312;2022-10-18T01:20:58;14.80;;;6.77;;
8482;SDS011;4278;42.668;23.312;2022-10-18T01:23:35;11.60;;;7.63;;
8482;SDS011;4278;42.668;23.312;2022-10-18T01:26:07;14.20;;;7.53;;
8482;SDS011;4278;42.668;23.312;2022-10-18T01:28:43;16.17;;;8.17;;
8482;SDS011;4278;42.668;23.312;2022-10-18T01:31:15;15.27;;;7.77;;
8482;SDS011;4278;42.668;23.312;2022-10-18T01:33:46;14.13;;;7.87;;
8482;SDS011;4278;42.668;23.312;2022-10-18T01:36:17;13.50;;;7.73;;
8482;SDS011;4278;42.668;23.312;2022-10-18T01:38:44;11.63;;;8.00;;
8482;SDS011;4278;42.668;23.312;2022-10-18T01:41:12;12.40;;;8.30;;
8482;SDS011;4278;42.668;23.312;2022-10-18T01:43:39;12.37;;;7.17;;
8482;SDS011;4278;42.668;23.312;2022-10-18T01:46:07;16.70;;;7.93;;
8482;SDS011;4278;42.668;23.312;2022-10-18T01:48:35;11.27;;;7.60;;
8482;SDS011;4278;42.668;23.312;2022-10-18T01:51:03;16.77;;;7.27;;
8482;SDS011;4278;42.668;23.312;2022-10-18T01:53:30;12.63;;;8.70;;
8482;SDS011;4278;42.668;23.312;2022-10-18T01:56:04;12.53;;;7.23;;
8482;SDS011;4278;42.668;23.312;2022-10-18T01:58:36;12.87;;;7.90;;
8482;SDS011;4278;42.668;23.312;2022-10-18T02:01:07;13.47;;;7.60;;
8482;SDS011;4278;42.668;23.312;2022-10-18T02:03:36;13.33;;;7.70;;
8482;SDS011;4278;42.668;23.312;2022-10-18T02:06:07;11.37;;;6.93;;
8482;SDS011;4278;42.668;23.312;2022-10-18T02:08:36;12.30;;;7.93;;
8482;SDS011;4278;42.668;23.312;2022-10-18T02:11:04;13.33;;;7.37;;
8482;SDS011;4278;42.668;23.312;2022-10-18T02:13:32;17.07;;;8.07;;
8482;SDS011;4278;42.668;23.312;2022-10-18T02:16:02;14.60;;;7.20;;
8482;SDS011;4278;42.668;23.312;2022-10-18T02:18:32;13.77;;;7.50;;
8482;SDS011;4278;42.668;23.312;2022-10-18T02:21:00;11.13;;;7.63;;
8482;SDS011;4278;42.668;23.312;2022-10-18T02:23:28;16.93;;;7.73;;
8482;SDS011;4278;42.668;23.312;2022-10-18T02:25:56;10.53;;;7.43;;
8482;SDS011;4278;42.668;23.312;2022-10-18T02:28:23;14.23;;;8.03;;
8482;SDS011;4278;42.668;23.312;2022-10-18T02:30:50;14.90;;;8.30;;
8482;SDS011;4278;42.668;23.312;2022-10-18T02:33:18;19.20;;;8.27;;
8482;SDS011;4278;42.668;23.312;2022-10-18T02:35:48;17.80;;;9.07;;
8482;SDS011;4278;42.668;23.312;2022-10-18T02:38:18;14.97;;;9.90;;
8482;SDS011;4278;42.668;23.312;2022-10-18T02:40:45;14.67;;;9.27;;
8482;SDS011;4278;42.668;23.312;2022-10-18T02:43:12;14.97;;;9.33;;
8482;SDS011;4278;42.668;23.312;2022-10-18T02:45:39;12.47;;;8.03;;
8482;SDS011;4278;42.668;23.312;2022-10-18T02:48:05;15.80;;;8.80;;
8482;SDS011;4278;42.668;23.312;2022-10-18T02:50:32;16.03;;;8.63;;
8482;SDS011;4278;42.668;23.312;2022-10-18T02:52:59;17.23;;;8.23;;
8482;SDS011;4278;42.668;23.312;2022-10-18T02:55:27;15.00;;;8.43;;
8482;SDS011;4278;42.668;23.312;2022-10-18T02:57:53;13.33;;;8.33;;
8482;SDS011;4278;42.668;23.312;2022-10-18T03:00:20;12.83;;;7.93;;
8482;SDS011;4278;42.668;23.312;2022-10-18T03:02:46;14.30;;;8.23;;
8482;SDS011;4278;42.668;23.312;2022-10-18T03:05:13;14.70;;;8.37;;
8482;SDS011;4278;42.668;23.312;2022-10-18T03:07:39;16.87;;;8.00;;
8482;SDS011;4278;42.668;23.312;2022-10-18T03:10:06;17.80;;;8.93;;
8482;SDS011;4278;42.668;23.312;2022-10-18T03:12:34;14.77;;;8.47;;
8482;SDS011;4278;42.668;23.312;2022-10-18T03:15:01;11.20;;;7.87;;
8482;SDS011;4278;42.668;23.312;2022-10-18T03:17:27;12.10;;;7.40;;
8482;SDS011;4278;42.668;23.312;2022-10-18T03:19:54;14.70;;;6.90;;
8482;SDS011;4278;42.668;23.312;2022-10-18T03:22:20;13.63;;;7.97;;
8482;SDS011;4278;42.668;23.312;2022-10-18T03:24:47;12.33;;;7.57;;
8482;SDS011;4278;42.668;23.312;2022-10-18T03:27:13;12.63;;;7.23;;
8482;SDS011;4278;42.668;23.312;2022-10-18T03:29:41;13.77;;;7.67;;
8482;SDS011;4278;42.668;23.312;2022-10-18T03:32:07;10.60;;;6.93;;
8482;SDS011;4278;42.668;23.312;2022-10-18T03:34:34;13.57;;;7.37;;
8482;SDS011;4278;42.668;23.312;2022-10-18T03:37:00;10.47;;;6.50;;
8482;SDS011;4278;42.668;23.312;2022-10-18T03:39:27;12.27;;;7.13;;
8482;SDS011;4278;42.668;23.312;2022-10-18T03:41:54;15.50;;;8.27;;
8482;SDS011;4278;42.668;23.312;2022-10-18T03:44:20;11.53;;;7.60;;
8482;SDS011;4278;42.668;23.312;2022-10-18T03:46:48;15.63;;;7.60;;
8482;SDS011;4278;42.668;23.312;2022-10-18T03:49:15;12.30;;;7.43;;
8482;SDS011;4278;42.668;23.312;2022-10-18T03:51:41;16.47;;;8.30;;
8482;SDS011;4278;42.668;23.312;2022-10-18T03:54:08;16.67;;;7.83;;
8482;SDS011;4278;42.668;23.312;2022-10-18T03:56:34;16.20;;;8.20;;
8482;SDS011;4278;42.668;23.312;2022-10-18T03:59:01;12.87;;;6.77;;
8482;SDS011;4278;42.668;23.312;2022-10-18T04:01:28;10.73;;;6.97;;
8482;SDS011;4278;42.668;23.312;2022-10-18T04:03:56;12.50;;;7.20;;
8482;SDS011;4278;42.668;23.312;2022-10-18T04:06:23;12.57;;;6.93;;
8482;SDS011;4278;42.668;23.312;2022-10-18T04:08:49;11.90;;;6.63;;
8482;SDS011;4278;42.668;23.312;2022-10-18T04:11:16;14.53;;;7.10;;
8482;SDS011;4278;42.668;23.312;2022-10-18T04:13:42;12.43;;;7.10;;
8482;SDS011;4278;42.668;23.312;2022-10-18T04:16:09;10.43;;;7.23;;
8482;SDS011;4278;42.668;23.312;2022-10-18T04:18:35;11.60;;;6.83;;
8482;SDS011;4278;42.668;23.312;2022-10-18T04:21:03;14.97;;;7.00;;
8482;SDS011;4278;42.668;23.312;2022-10-18T04:23:30;15.87;;;7.23;;
8482;SDS011;4278;42.668;23.312;2022-10-18T04:25:56;13.97;;;7.50;;
8482;SDS011;4278;42.668;23.312;2022-10-18T04:28:23;11.70;;;7.10;;
8482;SDS011;4278;42.668;23.312;2022-10-18T04:30:49;14.30;;;7.67;;
8482;SDS011;4278;42.668;23.312;2022-10-18T04:33:16;15.73;;;7.10;;
8482;SDS011;4278;42.668;23.312;2022-10-18T04:35:43;12.27;;;7.57;;
8482;SDS011;4278;42.668;23.312;2022-10-18T04:38:11;12.83;;;7.23;;
8482;SDS011;4278;42.668;23.312;2022-10-18T04:40:38;12.07;;;7.70;;
8482;SDS011;4278;42.668;23.312;2022-10-18T04:43:04;15.67;;;7.47;;
8482;SDS011;4278;42.668;23.312;2022-10-18T04:45:31;12.77;;;7.97;;
8482;SDS011;4278;42.668;23.312;2022-10-18T04:47:57;13.03;;;7.83;;
8482;SDS011;4278;42.668;23.312;2022-10-18T04:50:24;11.90;;;7.30;;
8482;SDS011;4278;42.668;23.312;2022-10-18T04:52:51;12.33;;;7.47;;
8482;SDS011;4278;42.668;23.312;2022-10-18T04:55:19;15.77;;;7.77;;
8482;SDS011;4278;42.668;23.312;2022-10-18T04:57:46;16.30;;;7.90;;
8482;SDS011;4278;42.668;23.312;2022-10-18T05:00:13;13.63;;;7.53;;
8482;SDS011;4278;42.668;23.312;2022-10-18T05:02:39;13.03;;;7.30;;
8482;SDS011;4278;42.668;23.312;2022-10-18T05:05:06;11.13;;;6.83;;
8482;SDS011;4278;42.668;23.312;2022-10-18T05:07:33;10.87;;;6.60;;
8482;SDS011;4278;42.668;23.312;2022-10-18T05:09:59;14.13;;;7.30;;
8482;SDS011;4278;42.668;23.312;2022-10-18T05:12:27;13.43;;;6.73;;
8482;SDS011;4278;42.668;23.312;2022-10-18T05:14:54;14.70;;;7.33;;
8482;SDS011;4278;42.668;23.312;2022-10-18T05:17:20;12.70;;;6.97;;
8482;SDS011;4278;42.668;23.312;2022-10-18T05:19:47;12.17;;;6.30;;
8482;SDS011;4278;42.668;23.312;2022-10-18T05:22:13;16.03;;;8.23;;
8482;SDS011;4278;42.668;23.312;2022-10-18T05:24:40;13.10;;;6.70;;
8482;SDS011;4278;42.668;23.312;2022-10-18T05:27:06;16.03;;;7.73;;
8482;SDS011;4278;42.668;23.312;2022-10-18T05:29:35;13.67;;;6.83;;
8482;SDS011;4278;42.668;23.312;2022-10-18T05:32:02;12.40;;;7.30;;
8482;SDS011;4278;42.668;23.312;2022-10-18T05:34:28;13.93;;;7.40;;
8482;SDS011;4278;42.668;23.312;2022-10-18T05:36:56;12.73;;;7.27;;
8482;SDS011;4278;42.668;23.312;2022-10-18T05:39:22;13.33;;;7.33;;
8482;SDS011;4278;42.668;23.312;2022-10-18T05:41:49;16.00;;;7.53;;
8482;SDS011;4278;42.668;23.312;2022-10-18T05:44:15;12.47;;;6.90;;
8482;SDS011;4278;42.668;23.312;2022-10-18T05:46:43;13.27;;;7.73;;
8482;SDS011;4278;42.668;23.312;2022-10-18T05:49:10;11.70;;;7.73;;
8482;SDS011;4278;42.668;23.312;2022-10-18T05:51:37;13.97;;;7.60;;
8482;SDS011;4278;42.668;23.312;2022-10-18T05:54:04;12.10;;;7.43;;
8482;SDS011;4278;42.668;23.312;2022-10-18T05:56:30;14.63;;;7.83;;
8482;SDS011;4278;42.668;23.312;2022-10-18T05:58:57;14.87;;;8.27;;
8482;SDS011;4278;42.668;23.312;2022-10-18T06:01:23;26.83;;;14.20;;
8482;SDS011;4278;42.668;23.312;2022-10-18T06:03:51;22.37;;;11.60;;
8482;SDS011;4278;42.668;23.312;2022-10-18T06:06:18;18.33;;;9.20;;
8482;SDS011;4278;42.668;23.312;2022-10-18T06:08:44;23.27;;;8.90;;
8482;SDS011;4278;42.668;23.312;2022-10-18T06:11:15;29.80;;;13.50;;
8482;SDS011;4278;42.668;23.312;2022-10-18T06:13:41;37.70;;;19.37;;
8482;SDS011;4278;42.668;23.312;2022-10-18T06:16:08;22.70;;;11.13;;
8482;SDS011;4278;42.668;23.312;2022-10-18T06:18:35;21.67;;;10.93;;
8482;SDS011;4278;42.668;23.312;2022-10-18T06:21:03;14.80;;;9.53;;
8482;SDS011;4278;42.668;23.312;2022-10-18T06:23:30;18.13;;;9.57;;
8482;SDS011;4278;42.668;23.312;2022-10-18T06:25:57;36.53;;;20.37;;
8482;SDS011;4278;42.668;23.312;2022-10-18T06:28:24;18.73;;;10.07;;
8482;SDS011;4278;42.668;23.312;2022-10-18T06:30:50;25.30;;;10.57;;
8482;SDS011;4278;42.668;23.312;2022-10-18T06:33:16;11.20;;;7.43;;
8482;SDS011;4278;42.668;23.312;2022-10-18T06:35:43;16.40;;;8.23;;
8482;SDS011;4278;42.668;23.312;2022-10-18T06:38:20;17.47;;;8.60;;
8482;SDS011;4278;42.668;23.312;2022-10-18T06:40:46;13.73;;;7.77;;
8482;SDS011;4278;42.668;23.312;2022-10-18T06:43:13;20.53;;;9.57;;
8482;SDS011;4278;42.668;23.312;2022-10-18T06:45:39;22.57;;;9.10;;
8482;SDS011;4278;42.668;23.312;2022-10-18T06:48:06;17.40;;;10.77;;
8482;SDS011;4278;42.668;23.312;2022-10-18T06:50:32;24.70;;;13.80;;
8482;SDS011;4278;42.668;23.312;2022-10-18T06:52:59;20.27;;;12.20;;
8482;SDS011;4278;42.668;23.312;2022-10-18T06:55:30;23.53;;;11.83;;
8482;SDS011;4278;42.668;23.312;2022-10-18T06:57:56;17.80;;;10.40;;
8482;SDS011;4278;42.668;23.312;2022-10-18T07:00:23;22.07;;;10.10;;
8482;SDS011;4278;42.668;23.312;2022-10-18T07:02:50;17.57;;;10.73;;
8482;SDS011;4278;42.668;23.312;2022-10-18T07:05:16;15.90;;;9.43;;
8482;SDS011;4278;42.668;23.312;2022-10-18T07:07:43;18.80;;;10.07;;
8482;SDS011;4278;42.668;23.312;2022-10-18T07:10:09;20.80;;;10.87;;
8482;SDS011;4278;42.668;23.312;2022-10-18T07:12:37;24.47;;;12.57;;
8482;SDS011;4278;42.668;23.312;2022-10-18T07:15:04;22.47;;;13.33;;
8482;SDS011;4278;42.668;23.312;2022-10-18T07:17:31;18.27;;;10.73;;
8482;SDS011;4278;42.668;23.312;2022-10-18T07:19:57;23.23;;;12.50;;
8482;SDS011;4278;42.668;23.312;2022-10-18T07:22:24;19.87;;;11.33;;
8482;SDS011;4278;42.668;23.312;2022-10-18T07:24:50;23.27;;;10.97;;
8482;SDS011;4278;42.668;23.312;2022-10-18T07:27:17;20.10;;;10.67;;
8482;SDS011;4278;42.668;23.312;2022-10-18T07:29:45;18.43;;;11.37;;
8482;SDS011;4278;42.668;23.312;2022-10-18T07:32:12;41.57;;;22.00;;
8482;SDS011;4278;42.668;23.312;2022-10-18T07:34:39;38.67;;;19.90;;
8482;SDS011;4278;42.668;23.312;2022-10-18T07:37:06;30.23;;;16.87;;
8482;SDS011;4278;42.668;23.312;2022-10-18T07:39:32;31.47;;;15.03;;
8482;SDS011;4278;42.668;23.312;2022-10-18T07:41:59;28.27;;;15.00;;
8482;SDS011;4278;42.668;23.312;2022-10-18T07:44:25;24.83;;;12.67;;
8482;SDS011;4278;42.668;23.312;2022-10-18T07:46:54;20.37;;;13.13;;
8482;SDS011;4278;42.668;23.312;2022-10-18T07:49:20;25.97;;;13.37;;
8482;SDS011;4278;42.668;23.312;2022-10-18T07:51:47;22.50;;;14.13;;
8482;SDS011;4278;42.668;23.312;2022-10-18T07:54:13;23.43;;;13.07;;
8482;SDS011;4278;42.668;23.312;2022-10-18T07:56:40;25.17;;;12.77;;
8482;SDS011;4278;42.668;23.312;2022-10-18T07:59:07;19.63;;;12.17;;
8482;SDS011;4278;42.668;23.312;2022-10-18T08:01:34;22.17;;;13.57;;
8482;SDS011;4278;42.668;23.312;2022-10-18T08:04:02;30.23;;;15.83;;
8482;SDS011;4278;42.668;23.312;2022-10-18T08:06:29;24.00;;;12.23;;
8482;SDS011;4278;42.668;23.312;2022-10-18T08:08:55;23.97;;;13.87;;
8482;SDS011;4278;42.668;23.312;2022-10-18T08:11:23;24.47;;;13.10;;
8482;SDS011;4278;42.668;23.312;2022-10-18T08:13:50;23.97;;;11.63;;
8482;SDS011;4278;42.668;23.312;2022-10-18T08:16:18;36.97;;;13.77;;
8482;SDS011;4278;42.668;23.312;2022-10-18T08:18:45;19.40;;;12.23;;
8482;SDS011;4278;42.668;23.312;2022-10-18T08:21:13;22.10;;;12.47;;
8482;SDS011;4278;42.668;23.312;2022-10-18T08:23:40;19.53;;;11.93;;
8482;SDS011;4278;42.668;23.312;2022-10-18T08:26:07;22.70;;;12.83;;
8482;SDS011;4278;42.668;23.312;2022-10-18T08:28:34;21.77;;;12.40;;
8482;SDS011;4278;42.668;23.312;2022-10-18T08:31:01;31.83;;;17.20;;
8482;SDS011;4278;42.668;23.312;2022-10-18T08:33:28;33.93;;;19.07;;
8482;SDS011;4278;42.668;23.312;2022-10-18T08:35:55;30.40;;;13.77;;
8482;SDS011;4278;42.668;23.312;2022-10-18T08:38:23;29.30;;;15.93;;
8482;SDS011;4278;42.668;23.312;2022-10-18T08:40:50;21.30;;;11.40;;
8482;SDS011;4278;42.668;23.312;2022-10-18T08:43:20;24.50;;;13.17;;
8482;SDS011;4278;42.668;23.312;2022-10-18T08:45:47;28.27;;;15.30;;
8482;SDS011;4278;42.668;23.312;2022-10-18T08:48:16;25.10;;;16.17;;
8482;SDS011;4278;42.668;23.312;2022-10-18T08:50:43;24.90;;;15.33;;
8482;SDS011;4278;42.668;23.312;2022-10-18T08:53:12;30.57;;;15.03;;
8482;SDS011;4278;42.668;23.312;2022-10-18T08:55:42;27.40;;;13.90;;
8482;SDS011;4278;42.668;23.312;2022-10-18T08:58:12;24.50;;;14.10;;
8482;SDS011;4278;42.668;23.312;2022-10-18T09:00:41;34.83;;;17.20;;
8482;SDS011;4278;42.668;23.312;2022-10-18T09:03:17;28.07;;;15.67;;
8482;SDS011;4278;42.668;23.312;2022-10-18T09:05:48;32.53;;;17.50;;
8482;SDS011;4278;42.668;23.312;2022-10-18T09:11:02;29.40;;;18.53;;
8482;SDS011;4278;42.668;23.312;2022-10-18T09:13:34;25.17;;;15.37;;
8482;SDS011;4278;42.668;23.312;2022-10-18T09:16:03;31.07;;;17.13;;
8482;SDS011;4278;42.668;23.312;2022-10-18T09:18:34;27.37;;;15.97;;
8482;SDS011;4278;42.668;23.312;2022-10-18T09:21:04;28.27;;;14.17;;
8482;SDS011;4278;42.668;23.312;2022-10-18T09:23:39;19.63;;;12.17;;
8482;SDS011;4278;42.668;23.312;2022-10-18T09:26:12;24.77;;;13.13;;
8482;SDS011;4278;42.668;23.312;2022-10-18T09:28:42;30.43;;;17.70;;
8482;SDS011;4278;42.668;23.312;2022-10-18T09:31:11;23.87;;;13.20;;
8482;SDS011;4278;42.668;23.312;2022-10-18T09:33:42;18.30;;;12.30;;
8482;SDS011;4278;42.668;23.312;2022-10-18T09:36:11;20.07;;;11.27;;
8482;SDS011;4278;42.668;23.312;2022-10-18T09:38:40;17.80;;;10.57;;
8482;SDS011;4278;42.668;23.312;2022-10-18T09:41:08;19.30;;;10.10;;
8482;SDS011;4278;42.668;23.312;2022-10-18T09:43:41;23.50;;;11.13;;
8482;SDS011;4278;42.668;23.312;2022-10-18T09:46:09;126.60;;;21.23;;
8482;SDS011;4278;42.668;23.312;2022-10-18T09:48:37;17.77;;;11.03;;
8482;SDS011;4278;42.668;23.312;2022-10-18T09:51:07;20.53;;;12.87;;
8482;SDS011;4278;42.668;23.312;2022-10-18T09:53:36;30.80;;;16.70;;
8482;SDS011;4278;42.668;23.312;2022-10-18T09:56:07;31.77;;;18.60;;
8482;SDS011;4278;42.668;23.312;2022-10-18T09:58:41;35.97;;;20.37;;
8482;SDS011;4278;42.668;23.312;2022-10-18T10:01:08;17.53;;;12.50;;
8482;SDS011;4278;42.668;23.312;2022-10-18T10:03:36;17.73;;;11.40;;
8482;SDS011;4278;42.668;23.312;2022-10-18T10:06:13;14.93;;;10.63;;
8482;SDS011;4278;42.668;23.312;2022-10-18T10:08:40;21.07;;;10.80;;
8482;SDS011;4278;42.668;23.312;2022-10-18T10:11:12;26.93;;;14.60;;
8482;SDS011;4278;42.668;23.312;2022-10-18T10:13:52;25.40;;;14.10;;
8482;SDS011;4278;42.668;23.312;2022-10-18T10:16:22;25.57;;;15.10;;
8482;SDS011;4278;42.668;23.312;2022-10-18T10:18:50;17.63;;;10.87;;
8482;SDS011;4278;42.668;23.312;2022-10-18T10:21:17;18.33;;;11.23;;
8482;SDS011;4278;42.668;23.312;2022-10-18T10:23:45;16.00;;;9.60;;
8482;SDS011;4278;42.668;23.312;2022-10-18T10:26:19;13.50;;;8.02;;
8482;SDS011;4278;42.668;23.312;2022-10-18T10:28:46;16.67;;;9.27;;
8482;SDS011;4278;42.668;23.312;2022-10-18T10:31:20;12.60;;;7.82;;
8482;SDS011;4278;42.668;23.312;2022-10-18T10:33:57;20.40;;;8.20;;
8482;SDS011;4278;42.668;23.312;2022-10-18T10:36:23;15.38;;;8.02;;
8482;SDS011;4278;42.668;23.312;2022-10-18T10:39:01;11.27;;;7.25;;
8482;SDS011;4278;42.668;23.312;2022-10-18T10:41:28;12.43;;;7.15;;
8482;SDS011;4278;42.668;23.312;2022-10-18T10:43:54;12.02;;;7.53;;
8482;SDS011;4278;42.668;23.312;2022-10-18T10:46:22;15.70;;;10.15;;
8482;SDS011;4278;42.668;23.312;2022-10-18T10:48:58;18.92;;;10.30;;
8482;SDS011;4278;42.668;23.312;2022-10-18T10:51:27;14.55;;;10.60;;
8482;SDS011;4278;42.668;23.312;2022-10-18T10:53:56;20.30;;;14.00;;
8482;SDS011;4278;42.668;23.312;2022-10-18T10:56:24;12.68;;;6.72;;
8482;SDS011;4278;42.668;23.312;2022-10-18T10:58:52;16.30;;;7.82;;
8482;SDS011;4278;42.668;23.312;2022-10-18T11:01:25;10.63;;;6.88;;
8482;SDS011;4278;42.668;23.312;2022-10-18T11:03:52;12.68;;;6.90;;
8482;SDS011;4278;42.668;23.312;2022-10-18T11:09:08;8.73;;;5.93;;
8482;SDS011;4278;42.668;23.312;2022-10-18T11:11:38;6.90;;;4.78;;
8482;SDS011;4278;42.668;23.312;2022-10-18T11:14:08;7.80;;;4.25;;
8482;SDS011;4278;42.668;23.312;2022-10-18T11:16:41;7.93;;;4.07;;
8482;SDS011;4278;42.668;23.312;2022-10-18T11:19:28;7.18;;;4.63;;
8482;SDS011;4278;42.668;23.312;2022-10-18T11:21:57;7.45;;;4.80;;
8482;SDS011;4278;42.668;23.312;2022-10-18T11:24:24;7.22;;;4.50;;
8482;SDS011;4278;42.668;23.312;2022-10-18T11:26:51;7.70;;;4.40;;
8482;SDS011;4278;42.668;23.312;2022-10-18T11:29:30;7.88;;;4.13;;
8482;SDS011;4278;42.668;23.312;2022-10-18T11:32:05;7.30;;;4.30;;
8482;SDS011;4278;42.668;23.312;2022-10-18T11:37:28;4.38;;;3.30;;
8482;SDS011;4278;42.668;23.312;2022-10-18T11:40:00;8.07;;;3.25;;
8482;SDS011;4278;42.668;23.312;2022-10-18T11:42:29;4.05;;;2.55;;
8482;SDS011;4278;42.668;23.312;2022-10-18T11:45:01;5.75;;;2.67;;
8482;SDS011;4278;42.668;23.312;2022-10-18T11:47:35;3.65;;;2.25;;
8482;SDS011;4278;42.668;23.312;2022-10-18T11:50:10;6.53;;;3.85;;
8482;SDS011;4278;42.668;23.312;2022-10-18T11:52:40;6.82;;;4.15;;
8482;SDS011;4278;42.668;23.312;2022-10-18T11:55:26;5.60;;;4.25;;
8482;SDS011;4278;42.668;23.312;2022-10-18T11:57:55;6.72;;;5.25;;
8482;SDS011;4278;42.668;23.312;2022-10-18T12:00:33;4.07;;;2.70;;
8482;SDS011;4278;42.668;23.312;2022-10-18T12:05:50;5.03;;;2.17;;
8482;SDS011;4278;42.668;23.312;2022-10-18T12:08:19;5.78;;;2.25;;
8482;SDS011;4278;42.668;23.312;2022-10-18T12:10:48;2.53;;;2.20;;
8482;SDS011;4278;42.668;23.312;2022-10-18T12:13:20;5.57;;;2.25;;
8482;SDS011;4278;42.668;23.312;2022-10-18T12:15:48;2.78;;;2.08;;
8482;SDS011;4278;42.668;23.312;2022-10-18T12:18:16;2.58;;;1.70;;
8482;SDS011;4278;42.668;23.312;2022-10-18T12:20:44;2.15;;;1.80;;
8482;SDS011;4278;42.668;23.312;2022-10-18T12:23:14;5.60;;;2.55;;
8482;SDS011;4278;42.668;23.312;2022-10-18T12:25:42;3.72;;;2.50;;
8482;SDS011;4278;42.668;23.312;2022-10-18T12:28:12;2.20;;;1.83;;
8482;SDS011;4278;42.668;23.312;2022-10-18T12:30:42;3.97;;;1.92;;
8482;SDS011;4278;42.668;23.312;2022-10-18T12:33:13;10.15;;;3.90;;
8482;SDS011;4278;42.668;23.312;2022-10-18T12:35:44;3.42;;;2.50;;
8482;SDS011;4278;42.668;23.312;2022-10-18T12:38:16;7.57;;;2.95;;
8482;SDS011;4278;42.668;23.312;2022-10-18T12:40:45;3.20;;;2.30;;
8482;SDS011;4278;42.668;23.312;2022-10-18T12:43:15;8.77;;;2.88;;
8482;SDS011;4278;42.668;23.312;2022-10-18T12:45:47;7.20;;;4.65;;
8482;SDS011;4278;42.668;23.312;2022-10-18T12:48:25;5.93;;;3.17;;
8482;SDS011;4278;42.668;23.312;2022-10-18T12:50:56;5.88;;;2.70;;
8482;SDS011;4278;42.668;23.312;2022-10-18T12:53:24;4.93;;;2.10;;
8482;SDS011;4278;42.668;23.312;2022-10-18T12:55:51;12.35;;;2.63;;
8482;SDS011;4278;42.668;23.312;2022-10-18T12:58:22;19.65;;;3.05;;
8482;SDS011;4278;42.668;23.312;2022-10-18T13:00:53;6.05;;;1.95;;
8482;SDS011;4278;42.668;23.312;2022-10-18T13:03:39;2.50;;;1.60;;
8482;SDS011;4278;42.668;23.312;2022-10-18T13:06:06;3.53;;;1.92;;
8482;SDS011;4278;42.668;23.312;2022-10-18T13:08:38;3.13;;;1.70;;
8482;SDS011;4278;42.668;23.312;2022-10-18T13:13:53;2.78;;;2.28;;
8482;SDS011;4278;42.668;23.312;2022-10-18T13:16:30;2.25;;;1.70;;
8482;SDS011;4278;42.668;23.312;2022-10-18T13:18:59;1.67;;;1.50;;
8482;SDS011;4278;42.668;23.312;2022-10-18T13:21:31;3.90;;;2.97;;
8482;SDS011;4278;42.668;23.312;2022-10-18T13:24:08;4.50;;;2.00;;
8482;SDS011;4278;42.668;23.312;2022-10-18T13:26:41;6.32;;;4.53;;
8482;SDS011;4278;42.668;23.312;2022-10-18T13:29:16;5.13;;;1.80;;
8482;SDS011;4278;42.668;23.312;2022-10-18T13:31:46;2.58;;;1.58;;
8482;SDS011;4278;42.668;23.312;2022-10-18T13:34:16;2.85;;;1.42;;
8482;SDS011;4278;42.668;23.312;2022-10-18T13:36:54;2.72;;;1.30;;
8482;SDS011;4278;42.668;23.312;2022-10-18T13:39:22;2.35;;;1.90;;
8482;SDS011;4278;42.668;23.312;2022-10-18T13:44:39;2.28;;;1.80;;
8482;SDS011;4278;42.668;23.312;2022-10-18T13:47:10;1.25;;;1.15;;
8482;SDS011;4278;42.668;23.312;2022-10-18T13:49:39;4.38;;;1.55;;
8482;SDS011;4278;42.668;23.312;2022-10-18T13:52:10;2.35;;;1.60;;
8482;SDS011;4278;42.668;23.312;2022-10-18T13:54:49;2.85;;;1.60;;
8482;SDS011;4278;42.668;23.312;2022-10-18T13:57:23;4.80;;;1.40;;
8482;SDS011;4278;42.668;23.312;2022-10-18T14:00:01;2.42;;;1.70;;
8482;SDS011;4278;42.668;23.312;2022-10-18T14:05:19;1.85;;;1.42;;
8482;SDS011;4278;42.668;23.312;2022-10-18T14:07:49;4.30;;;2.15;;
8482;SDS011;4278;42.668;23.312;2022-10-18T14:10:19;3.42;;;1.42;;
8482;SDS011;4278;42.668;23.312;2022-10-18T14:12:48;2.20;;;1.70;;
8482;SDS011;4278;42.668;23.312;2022-10-18T14:15:17;5.03;;;1.85;;
8482;SDS011;4278;42.668;23.312;2022-10-18T14:17:45;2.47;;;1.98;;
8482;SDS011;4278;42.668;23.312;2022-10-18T14:20:15;8.70;;;2.28;;
8482;SDS011;4278;42.668;23.312;2022-10-18T14:22:42;2.72;;;1.80;;
8482;SDS011;4278;42.668;23.312;2022-10-18T14:25:20;2.35;;;1.45;;
8482;SDS011;4278;42.668;23.312;2022-10-18T14:27:47;4.60;;;2.60;;
8482;SDS011;4278;42.668;23.312;2022-10-18T14:30:14;1.67;;;1.42;;
8482;SDS011;4278;42.668;23.312;2022-10-18T14:32:41;2.58;;;1.27;;
8482;SDS011;4278;42.668;23.312;2022-10-18T14:35:14;5.45;;;1.60;;
8482;SDS011;4278;42.668;23.312;2022-10-18T14:37:42;2.95;;;1.55;;
8482;SDS011;4278;42.668;23.312;2022-10-18T14:40:20;3.80;;;1.52;;
8482;SDS011;4278;42.668;23.312;2022-10-18T14:42:51;1.80;;;1.45;;
8482;SDS011;4278;42.668;23.312;2022-10-18T14:45:18;5.72;;;1.58;;
8482;SDS011;4278;42.668;23.312;2022-10-18T14:47:45;2.13;;;1.55;;
8482;SDS011;4278;42.668;23.312;2022-10-18T14:50:19;2.97;;;1.88;;
8482;SDS011;4278;42.668;23.312;2022-10-18T14:52:45;7.03;;;2.22;;
8482;SDS011;4278;42.668;23.312;2022-10-18T14:55:12;6.50;;;2.20;;
8482;SDS011;4278;42.668;23.312;2022-10-18T14:57:41;7.10;;;3.13;;
8482;SDS011;4278;42.668;23.312;2022-10-18T15:00:13;4.55;;;2.42;;
8482;SDS011;4278;42.668;23.312;2022-10-18T15:02:44;5.47;;;2.40;;
8482;SDS011;4278;42.668;23.312;2022-10-18T15:05:16;7.55;;;2.58;;
8482;SDS011;4278;42.668;23.312;2022-10-18T15:07:44;5.47;;;2.53;;
8482;SDS011;4278;42.668;23.312;2022-10-18T15:10:13;6.57;;;2.58;;
8482;SDS011;4278;42.668;23.312;2022-10-18T15:12:41;7.82;;;2.88;;
8482;SDS011;4278;42.668;23.312;2022-10-18T15:15:12;7.32;;;2.42;;
8482;SDS011;4278;42.668;23.312;2022-10-18T15:17:42;11.20;;;3.00;;